createdAt,value
2017-11-24T00:00:26.838Z,16.27
2017-11-24T00:01:07.380Z,16.15
2017-11-24T00:01:47.966Z,16.28
2017-11-24T00:02:28.615Z,16.23
2017-11-24T00:03:09.203Z,16.27
2017-11-24T00:03:49.716Z,16.2
2017-11-24T00:04:30.318Z,16.27
2017-11-24T00:05:10.752Z,16.2
2017-11-24T00:05:51.356Z,16.17
2017-11-24T00:06:31.906Z,16.23
2017-11-24T00:07:12.458Z,16.24
2017-11-24T00:07:53.016Z,16.27
2017-11-24T00:08:33.610Z,16.15
2017-11-24T00:09:14.112Z,16.24
2017-11-24T00:09:54.658Z,16.24
2017-11-24T00:10:35.193Z,16.27
2017-11-24T00:11:15.719Z,16.25
2017-11-24T00:11:56.273Z,16.25
2017-11-24T00:12:36.828Z,16.25
2017-11-24T00:13:17.377Z,16.23
2017-11-24T00:13:57.910Z,16.28
2017-11-24T00:14:38.488Z,16.28
2017-11-24T00:15:18.957Z,16.25
2017-11-24T00:15:59.541Z,16.24
2017-11-24T00:16:40.079Z,16.24
2017-11-24T00:17:20.633Z,16.27
2017-11-24T00:18:01.157Z,16.33
2017-11-24T00:18:41.705Z,16.28
2017-11-24T00:19:22.267Z,16.33
2017-11-24T00:20:02.829Z,16.31
2017-11-24T00:20:43.337Z,16.27
2017-11-24T00:21:23.974Z,16.24
2017-11-24T00:22:04.517Z,16.28
2017-11-24T00:22:45.032Z,16.28
2017-11-24T00:23:25.577Z,16.3
2017-11-24T00:24:06.181Z,16.28
2017-11-24T00:24:46.768Z,16.31
2017-11-24T00:25:27.259Z,16.27
2017-11-24T00:26:07.816Z,16.33
2017-11-24T00:26:48.334Z,16.25
2017-11-24T00:27:28.868Z,16.28
2017-11-24T00:28:09.391Z,16.28
2017-11-24T00:28:49.981Z,16.27
2017-11-24T00:29:30.523Z,16.39
2017-11-24T00:30:11.120Z,16.27
2017-11-24T00:30:51.681Z,16.31
2017-11-24T00:31:32.271Z,16.28
2017-11-24T00:32:12.838Z,16.33
2017-11-24T00:32:53.318Z,16.27
2017-11-24T00:33:33.879Z,16.28
2017-11-24T00:34:14.416Z,16.3
2017-11-24T00:34:54.990Z,16.28
2017-11-24T00:35:35.498Z,16.3
2017-11-24T00:36:16.025Z,16.31
2017-11-24T00:36:56.573Z,16.39
2017-11-24T00:37:37.130Z,16.31
2017-11-24T00:38:17.682Z,16.39
2017-11-24T00:38:58.181Z,16.33
2017-11-24T00:39:38.958Z,16.38
2017-11-24T00:40:19.420Z,16.33
2017-11-24T00:40:59.978Z,16.41
2017-11-24T00:43:13.634Z,16.39
2017-11-24T00:43:54.214Z,16.43
2017-11-24T00:44:34.764Z,16.39
2017-11-24T00:45:15.280Z,16.38
2017-11-24T00:45:55.873Z,16.41
2017-11-24T00:46:36.386Z,16.39
2017-11-24T00:47:16.929Z,16.33
2017-11-24T00:47:57.405Z,16.39
2017-11-24T00:48:37.955Z,16.39
2017-11-24T00:49:18.462Z,16.39
2017-11-24T00:49:59.019Z,16.39
2017-11-24T00:50:39.543Z,16.42
2017-11-24T00:51:20.079Z,16.41
2017-11-24T00:52:00.628Z,16.41
2017-11-24T00:52:41.144Z,16.41
2017-11-24T00:53:21.697Z,16.45
2017-11-24T00:54:02.205Z,16.35
2017-11-24T00:54:42.716Z,16.42
2017-11-24T00:55:23.260Z,16.41
2017-11-24T00:56:03.729Z,16.45
2017-11-24T00:56:44.325Z,16.42
2017-11-24T00:57:24.879Z,16.39
2017-11-24T00:58:05.414Z,16.45
2017-11-24T00:58:45.946Z,16.48
2017-11-24T00:59:26.448Z,16.43
2017-11-24T01:00:06.979Z,16.43
2017-11-24T01:00:47.562Z,16.42
2017-11-24T01:01:28.138Z,16.42
2017-11-24T01:02:08.651Z,16.42
2017-11-24T01:02:49.281Z,16.43
2017-11-24T01:03:29.779Z,16.42
2017-11-24T01:04:10.357Z,16.35
2017-11-24T01:04:50.879Z,16.38
2017-11-24T01:05:31.395Z,16.39
2017-11-24T01:06:11.999Z,16.43
2017-11-24T01:06:52.490Z,16.43
2017-11-24T01:07:33.121Z,16.43
2017-11-24T01:08:13.656Z,16.41
2017-11-24T01:08:54.157Z,16.48
2017-11-24T01:09:34.705Z,16.43
2017-11-24T01:10:15.255Z,16.39
2017-11-24T01:10:55.813Z,16.45
2017-11-24T01:11:36.428Z,16.42
2017-11-24T01:12:16.843Z,16.43
2017-11-24T01:12:57.423Z,16.39
2017-11-24T01:13:37.902Z,16.46
2017-11-24T01:14:18.442Z,16.42
2017-11-24T01:14:58.979Z,16.38
2017-11-24T01:15:39.573Z,16.46
2017-11-24T01:16:20.085Z,16.45
2017-11-24T01:17:00.636Z,16.53
2017-11-24T01:17:41.194Z,16.48
2017-11-24T01:18:21.727Z,16.49
2017-11-24T01:19:02.321Z,16.43
2017-11-24T01:19:42.814Z,16.41
2017-11-24T01:20:23.383Z,16.49
2017-11-24T01:21:03.887Z,16.5
2017-11-24T01:21:44.414Z,16.45
2017-11-24T01:22:25.042Z,16.5
2017-11-24T01:23:05.523Z,16.43
2017-11-24T01:23:46.051Z,16.42
2017-11-24T01:24:26.555Z,16.41
2017-11-24T01:25:07.176Z,16.42
2017-11-24T01:25:47.704Z,16.39
2017-11-24T01:26:28.263Z,16.35
2017-11-24T01:27:08.790Z,16.42
2017-11-24T01:27:49.366Z,16.46
2017-11-24T01:28:29.904Z,16.39
2017-11-24T01:29:10.482Z,16.39
2017-11-24T01:29:51.013Z,16.41
2017-11-24T01:30:31.586Z,16.43
2017-11-24T01:31:12.156Z,16.39
2017-11-24T01:31:52.752Z,16.45
2017-11-24T01:32:33.305Z,16.45
2017-11-24T01:33:13.907Z,16.39
2017-11-24T01:33:54.494Z,16.43
2017-11-24T01:34:35.070Z,16.41
2017-11-24T01:35:15.598Z,16.39
2017-11-24T01:35:56.154Z,16.41
2017-11-24T01:36:36.692Z,16.39
2017-11-24T01:37:17.283Z,16.38
2017-11-24T01:37:57.846Z,16.42
2017-11-24T01:38:38.367Z,16.35
2017-11-24T01:39:18.914Z,16.39
2017-11-24T01:39:59.435Z,16.43
2017-11-24T01:40:39.996Z,16.42
2017-11-24T01:41:20.560Z,16.35
2017-11-24T01:42:01.086Z,16.35
2017-11-24T01:42:41.649Z,16.35
2017-11-24T01:43:22.161Z,16.39
2017-11-24T01:44:02.723Z,16.39
2017-11-24T01:44:43.351Z,16.41
2017-11-24T01:45:23.882Z,16.43
2017-11-24T01:46:04.422Z,16.42
2017-11-24T01:46:44.900Z,16.42
2017-11-24T01:47:25.447Z,16.42
2017-11-24T01:48:06.004Z,16.43
2017-11-24T01:48:46.509Z,16.34
2017-11-24T01:49:27.117Z,16.41
2017-11-24T01:50:07.640Z,16.43
2017-11-24T01:50:48.318Z,16.39
2017-11-24T01:51:28.762Z,16.42
2017-11-24T01:52:09.300Z,16.43
2017-11-24T01:52:49.853Z,16.48
2017-11-24T01:53:30.366Z,16.49
2017-11-24T01:54:10.862Z,16.52
2017-11-24T01:54:51.449Z,16.46
2017-11-24T01:55:31.923Z,16.45
2017-11-24T01:56:12.518Z,16.5
2017-11-24T01:56:53.077Z,16.42
2017-11-24T01:57:33.566Z,16.41
2017-11-24T01:58:14.092Z,16.41
2017-11-24T01:58:54.619Z,16.35
2017-11-24T01:59:35.358Z,16.35
2017-11-24T02:00:15.897Z,16.42
2017-11-24T02:00:56.397Z,16.41
2017-11-24T02:01:36.932Z,16.39
2017-11-24T02:02:17.452Z,16.33
2017-11-24T02:02:58.036Z,16.38
2017-11-24T02:03:38.546Z,16.28
2017-11-24T02:04:19.126Z,16.25
2017-11-24T02:04:59.661Z,16.24
2017-11-24T02:05:40.267Z,16.28
2017-11-24T02:06:20.731Z,16.24
2017-11-24T02:07:01.256Z,16.23
2017-11-24T02:07:41.794Z,16.2
2017-11-24T02:08:22.329Z,16.14
2017-11-24T02:09:02.823Z,16.25
2017-11-24T02:09:43.385Z,16.24
2017-11-24T02:10:23.921Z,16.23
2017-11-24T02:11:04.476Z,16.27
2017-11-24T02:11:44.987Z,16.21
2017-11-24T02:12:25.589Z,16.25
2017-11-24T02:13:06.138Z,16.27
2017-11-24T02:13:46.663Z,16.21
2017-11-24T02:14:27.236Z,16.31
2017-11-24T02:15:07.726Z,16.25
2017-11-24T02:15:48.250Z,16.35
2017-11-24T02:16:28.809Z,16.25
2017-11-24T02:17:09.392Z,16.33
2017-11-24T02:17:49.892Z,16.25
2017-11-24T02:18:30.473Z,16.35
2017-11-24T02:19:10.975Z,16.27
2017-11-24T02:19:51.525Z,16.25
2017-11-24T02:20:32.095Z,16.3
2017-11-24T02:21:12.630Z,16.21
2017-11-24T02:21:53.172Z,16.23
2017-11-24T02:22:33.697Z,16.17
2017-11-24T02:23:14.316Z,16.15
2017-11-24T02:23:54.844Z,16.12
2017-11-24T02:24:35.433Z,16.11
2017-11-24T02:25:15.912Z,16.11
2017-11-24T02:25:56.481Z,16.14
2017-11-24T02:26:37.047Z,16.15
2017-11-24T02:27:17.565Z,16.12
2017-11-24T02:27:58.135Z,16.11
2017-11-24T02:28:38.665Z,16.17
2017-11-24T02:29:19.217Z,16.12
2017-11-24T02:29:59.768Z,16.02
2017-11-24T02:30:40.337Z,16.09
2017-11-24T02:31:20.822Z,16.14
2017-11-24T02:32:01.409Z,16.24
2017-11-24T02:32:41.952Z,16.15
2017-11-24T02:33:22.475Z,16.2
2017-11-24T02:34:03.027Z,16.05
2017-11-24T02:34:43.564Z,16.07
2017-11-24T02:35:24.100Z,16.07
2017-11-24T02:36:04.703Z,16.14
2017-11-24T02:36:45.272Z,16.09
2017-11-24T02:37:25.983Z,16.09
2017-11-24T02:38:06.488Z,16.04
2017-11-24T02:38:47.008Z,16.07
2017-11-24T02:39:27.580Z,16.09
2017-11-24T02:40:08.177Z,16.09
2017-11-24T02:40:48.680Z,16.09
2017-11-24T02:41:29.283Z,16.09
2017-11-24T02:42:09.888Z,16.11
2017-11-24T02:42:50.295Z,16.09
2017-11-24T02:43:30.904Z,16.07
2017-11-24T02:44:11.478Z,16.02
2017-11-24T02:44:52.065Z,15.96
2017-11-24T02:45:32.581Z,16.08
2017-11-24T02:46:13.157Z,16.08
2017-11-24T02:46:53.686Z,16.02
2017-11-24T02:47:34.209Z,16.02
2017-11-24T02:48:14.749Z,16
2017-11-24T02:48:55.275Z,15.97
2017-11-24T02:49:35.831Z,16.01
2017-11-24T02:50:16.397Z,15.96
2017-11-24T02:50:56.941Z,16.02
2017-11-24T02:51:37.519Z,15.97
2017-11-24T02:52:18.058Z,15.94
2017-11-24T02:52:58.558Z,16.01
2017-11-24T02:53:39.078Z,15.97
2017-11-24T02:54:19.621Z,16.09
2017-11-24T02:55:00.162Z,16.11
2017-11-24T02:55:40.700Z,16.07
2017-11-24T02:56:21.291Z,16.08
2017-11-24T02:57:01.830Z,16.08
2017-11-24T02:57:42.334Z,16.07
2017-11-24T02:58:22.879Z,16.08
2017-11-24T02:59:03.422Z,16.11
2017-11-24T02:59:44.008Z,16.08
2017-11-24T03:00:24.531Z,15.96
2017-11-24T03:01:05.064Z,16
2017-11-24T03:01:45.632Z,16.01
2017-11-24T03:02:26.176Z,16.07
2017-11-24T03:03:06.776Z,15.92
2017-11-24T03:03:47.609Z,15.93
2017-11-24T03:04:28.107Z,15.96
2017-11-24T03:05:08.658Z,15.94
2017-11-24T03:05:49.122Z,15.92
2017-11-24T03:06:29.659Z,15.9
2017-11-24T03:07:10.199Z,16
2017-11-24T03:07:50.783Z,15.94
2017-11-24T03:08:31.344Z,15.94
2017-11-24T03:09:11.905Z,16
2017-11-24T03:09:52.425Z,16
2017-11-24T03:10:32.915Z,16.04
2017-11-24T03:11:13.479Z,15.96
2017-11-24T03:11:54.022Z,16
2017-11-24T03:12:34.549Z,16
2017-11-24T03:13:15.169Z,16
2017-11-24T03:13:55.659Z,16.01
2017-11-24T03:14:36.220Z,16.01
2017-11-24T03:15:16.787Z,16.02
2017-11-24T03:15:57.383Z,16.05
2017-11-24T03:16:37.890Z,16.02
2017-11-24T03:17:18.422Z,16.02
2017-11-24T03:17:59.036Z,16.02
2017-11-24T03:18:39.758Z,16
2017-11-24T03:19:20.270Z,15.97
2017-11-24T03:20:00.873Z,15.92
2017-11-24T03:20:41.461Z,16.01
2017-11-24T03:21:22.012Z,15.96
2017-11-24T03:22:02.625Z,15.93
2017-11-24T03:22:43.168Z,16
2017-11-24T03:23:23.703Z,15.92
2017-11-24T03:24:04.220Z,15.93
2017-11-24T03:24:44.810Z,15.89
2017-11-24T03:25:25.533Z,15.93
2017-11-24T03:26:05.898Z,15.89
2017-11-24T03:26:46.440Z,15.92
2017-11-24T03:27:27.130Z,15.93
2017-11-24T03:28:07.639Z,15.96
2017-11-24T03:28:48.141Z,15.89
2017-11-24T03:29:28.706Z,15.87
2017-11-24T03:30:09.275Z,15.76
2017-11-24T03:30:49.809Z,15.84
2017-11-24T03:31:30.305Z,15.82
2017-11-24T03:32:10.830Z,15.84
2017-11-24T03:32:51.421Z,15.74
2017-11-24T03:33:32.021Z,15.82
2017-11-24T03:34:12.510Z,15.83
2017-11-24T03:34:53.077Z,15.84
2017-11-24T03:35:33.613Z,15.87
2017-11-24T03:36:14.128Z,15.84
2017-11-24T03:36:54.813Z,15.83
2017-11-24T03:37:35.394Z,15.86
2017-11-24T03:38:15.941Z,15.83
2017-11-24T03:38:56.452Z,15.82
2017-11-24T03:39:36.965Z,15.74
2017-11-24T03:40:17.485Z,15.76
2017-11-24T03:40:58.069Z,15.84
2017-11-24T03:41:38.617Z,15.74
2017-11-24T03:42:19.108Z,15.78
2017-11-24T03:42:59.632Z,15.82
2017-11-24T03:43:40.201Z,15.75
2017-11-24T03:44:20.776Z,15.86
2017-11-24T03:45:01.329Z,15.78
2017-11-24T03:45:41.855Z,15.75
2017-11-24T03:46:22.406Z,15.78
2017-11-24T03:47:02.938Z,15.78
2017-11-24T03:47:43.479Z,15.76
2017-11-24T03:48:24.034Z,15.8
2017-11-24T03:49:04.597Z,15.76
2017-11-24T03:49:45.087Z,15.71
2017-11-24T03:50:25.675Z,15.8
2017-11-24T03:51:06.247Z,15.82
2017-11-24T03:51:46.761Z,15.75
2017-11-24T03:52:27.346Z,15.82
2017-11-24T03:53:07.899Z,15.75
2017-11-24T03:53:48.433Z,15.84
2017-11-24T03:54:28.928Z,15.75
2017-11-24T03:55:09.473Z,15.84
2017-11-24T03:55:50.048Z,15.76
2017-11-24T03:56:30.562Z,15.84
2017-11-24T03:57:11.124Z,15.71
2017-11-24T03:57:51.684Z,15.74
2017-11-24T03:58:32.204Z,15.72
2017-11-24T03:59:12.714Z,15.72
2017-11-24T03:59:53.229Z,15.72
2017-11-24T04:00:33.778Z,15.74
2017-11-24T04:01:14.353Z,15.76
2017-11-24T04:01:54.973Z,15.75
2017-11-24T04:02:35.498Z,15.74
2017-11-24T04:03:15.987Z,15.82
2017-11-24T04:03:56.583Z,15.75
2017-11-24T04:04:37.160Z,15.69
2017-11-24T04:05:17.689Z,15.78
2017-11-24T04:05:58.241Z,15.71
2017-11-24T04:06:38.714Z,15.78
2017-11-24T04:07:19.460Z,15.71
2017-11-24T04:07:59.992Z,15.75
2017-11-24T04:08:40.516Z,15.72
2017-11-24T04:09:21.078Z,15.76
2017-11-24T04:10:01.636Z,15.74
2017-11-24T04:10:42.150Z,15.76
2017-11-24T04:11:22.707Z,15.76
2017-11-24T04:12:03.225Z,15.72
2017-11-24T04:12:43.767Z,15.82
2017-11-24T04:13:24.336Z,15.75
2017-11-24T04:14:04.885Z,15.84
2017-11-24T04:14:45.504Z,15.75
2017-11-24T04:15:26.081Z,15.78
2017-11-24T04:16:06.646Z,15.78
2017-11-24T04:16:47.188Z,15.86
2017-11-24T04:17:27.720Z,15.9
2017-11-24T04:18:08.216Z,15.92
2017-11-24T04:18:48.758Z,15.96
2017-11-24T04:19:29.364Z,15.89
2017-11-24T04:20:09.922Z,15.93
2017-11-24T04:20:50.407Z,15.93
2017-11-24T04:21:31.026Z,15.94
2017-11-24T04:22:11.521Z,15.93
2017-11-24T04:22:52.167Z,15.97
2017-11-24T04:23:32.584Z,16.01
2017-11-24T04:24:13.135Z,15.94
2017-11-24T04:24:53.702Z,16
2017-11-24T04:25:34.183Z,15.97
2017-11-24T04:26:14.761Z,15.94
2017-11-24T04:26:55.315Z,15.93
2017-11-24T04:27:35.788Z,15.93
2017-11-24T04:28:16.329Z,15.92
2017-11-24T04:28:56.897Z,15.93
2017-11-24T04:29:37.471Z,16
2017-11-24T04:30:17.931Z,15.93
2017-11-24T04:30:58.478Z,15.96
2017-11-24T04:31:39.085Z,16.02
2017-11-24T04:32:19.579Z,15.96
2017-11-24T04:33:00.108Z,15.9
2017-11-24T04:33:40.725Z,15.92
2017-11-24T04:34:21.225Z,15.97
2017-11-24T04:35:01.740Z,15.94
2017-11-24T04:35:42.329Z,15.94
2017-11-24T04:36:22.849Z,15.93
2017-11-24T04:37:03.362Z,15.9
2017-11-24T04:37:43.908Z,15.93
2017-11-24T04:38:24.495Z,15.94
2017-11-24T04:39:05.071Z,15.93
2017-11-24T04:39:45.660Z,15.89
2017-11-24T04:40:26.212Z,15.9
2017-11-24T04:41:06.864Z,15.92
2017-11-24T04:41:47.394Z,15.94
2017-11-24T04:42:28.015Z,15.92
2017-11-24T04:43:08.555Z,15.83
2017-11-24T04:43:49.121Z,15.84
2017-11-24T04:44:29.649Z,15.82
2017-11-24T04:45:10.189Z,15.82
2017-11-24T04:45:50.752Z,15.82
2017-11-24T04:46:31.314Z,15.89
2017-11-24T04:47:11.995Z,15.87
2017-11-24T04:47:52.612Z,15.87
2017-11-24T04:48:33.151Z,15.87
2017-11-24T04:49:13.727Z,15.82
2017-11-24T04:49:54.253Z,15.87
2017-11-24T04:50:34.830Z,15.78
2017-11-24T04:51:15.350Z,15.87
2017-11-24T04:51:55.893Z,15.86
2017-11-24T04:52:36.478Z,15.86
2017-11-24T04:53:17.062Z,15.87
2017-11-24T04:53:57.547Z,15.9
2017-11-24T04:54:38.049Z,15.92
2017-11-24T04:55:18.677Z,15.83
2017-11-24T04:55:59.203Z,15.83
2017-11-24T04:56:39.770Z,15.84
2017-11-24T04:57:20.303Z,15.86
2017-11-24T04:58:00.898Z,15.75
2017-11-24T04:58:41.386Z,15.8
2017-11-24T04:59:22.129Z,15.84
2017-11-24T05:00:02.637Z,15.83
2017-11-24T05:00:43.204Z,15.78
2017-11-24T05:01:23.717Z,15.75
2017-11-24T05:02:04.252Z,15.78
2017-11-24T05:02:44.833Z,15.72
2017-11-24T05:03:25.425Z,15.71
2017-11-24T05:04:05.962Z,15.75
2017-11-24T05:04:46.599Z,15.74
2017-11-24T05:05:27.180Z,15.74
2017-11-24T05:06:07.726Z,15.74
2017-11-24T05:06:49.017Z,15.72
2017-11-24T05:07:29.577Z,15.64
2017-11-24T05:08:10.159Z,15.74
2017-11-24T05:08:50.689Z,15.74
2017-11-24T05:09:31.223Z,15.64
2017-11-24T05:10:11.824Z,15.75
2017-11-24T05:10:52.380Z,15.75
2017-11-24T05:11:33.043Z,15.65
2017-11-24T05:12:13.705Z,15.65
2017-11-24T05:12:54.228Z,15.72
2017-11-24T05:13:35.026Z,15.68
2017-11-24T05:14:15.327Z,15.68
2017-11-24T05:14:55.863Z,15.69
2017-11-24T05:15:36.406Z,15.69
2017-11-24T05:16:16.978Z,15.62
2017-11-24T05:16:57.530Z,15.65
2017-11-24T05:17:37.967Z,15.65
2017-11-24T05:18:18.588Z,15.71
2017-11-24T05:18:59.059Z,15.69
2017-11-24T05:19:39.836Z,15.64
2017-11-24T05:20:20.433Z,15.71
2017-11-24T05:21:00.974Z,15.69
2017-11-24T05:21:41.801Z,15.68
2017-11-24T05:22:22.325Z,15.67
2017-11-24T05:23:03.005Z,15.57
2017-11-24T05:23:43.568Z,15.64
2017-11-24T05:24:24.058Z,15.6
2017-11-24T05:25:04.673Z,15.62
2017-11-24T05:25:45.280Z,15.64
2017-11-24T05:26:25.826Z,15.6
2017-11-24T05:27:06.328Z,15.59
2017-11-24T05:27:46.918Z,15.54
2017-11-24T05:28:27.529Z,15.56
2017-11-24T05:29:08.050Z,15.5
2017-11-24T05:29:48.609Z,15.57
2017-11-24T05:30:29.149Z,15.56
2017-11-24T05:31:09.729Z,15.56
2017-11-24T05:31:50.271Z,15.46
2017-11-24T05:32:30.752Z,15.5
2017-11-24T05:33:11.327Z,15.5
2017-11-24T05:33:51.880Z,15.51
2017-11-24T05:34:32.472Z,15.51
2017-11-24T05:35:13.025Z,15.46
2017-11-24T05:35:53.724Z,15.41
2017-11-24T05:36:34.274Z,15.41
2017-11-24T05:37:14.815Z,15.5
2017-11-24T05:37:55.329Z,15.46
2017-11-24T05:38:35.866Z,15.39
2017-11-24T05:39:16.412Z,15.43
2017-11-24T05:39:56.935Z,15.41
2017-11-24T05:40:37.445Z,15.49
2017-11-24T05:41:18.020Z,15.5
2017-11-24T05:41:58.575Z,15.51
2017-11-24T05:42:39.730Z,15.54
2017-11-24T05:43:20.251Z,15.5
2017-11-24T05:44:00.850Z,15.51
2017-11-24T05:44:41.362Z,15.53
2017-11-24T05:45:21.925Z,15.47
2017-11-24T05:46:02.461Z,15.57
2017-11-24T05:46:42.967Z,15.53
2017-11-24T05:47:23.514Z,15.56
2017-11-24T05:48:04.205Z,15.51
2017-11-24T05:48:44.915Z,15.53
2017-11-24T05:49:25.402Z,15.51
2017-11-24T05:50:05.947Z,15.5
2017-11-24T05:50:46.523Z,15.46
2017-11-24T05:51:27.060Z,15.5
2017-11-24T05:52:07.605Z,15.57
2017-11-24T05:52:48.164Z,15.59
2017-11-24T05:53:28.677Z,15.53
2017-11-24T05:54:09.318Z,15.59
2017-11-24T05:54:49.833Z,15.59
2017-11-24T05:55:30.411Z,15.62
2017-11-24T05:56:10.941Z,15.59
2017-11-24T05:56:51.504Z,15.69
2017-11-24T05:57:32.069Z,15.59
2017-11-24T05:58:12.620Z,15.68
2017-11-24T05:58:53.238Z,15.68
2017-11-24T05:59:33.699Z,15.65
2017-11-24T06:00:14.264Z,15.62
2017-11-24T06:00:54.767Z,15.62
2017-11-24T06:01:35.323Z,15.67
2017-11-24T06:02:15.922Z,15.74
2017-11-24T06:02:56.495Z,15.75
2017-11-24T06:03:37.074Z,15.72
2017-11-24T06:04:17.577Z,15.64
2017-11-24T06:04:58.165Z,15.69
2017-11-24T06:05:39.032Z,15.72
2017-11-24T06:06:19.845Z,15.74
2017-11-24T06:07:00.423Z,15.72
2017-11-24T06:07:40.981Z,15.74
2017-11-24T06:08:21.529Z,15.74
2017-11-24T06:09:02.050Z,15.69
2017-11-24T06:09:43.445Z,15.68
2017-11-24T06:10:23.248Z,15.72
2017-11-24T06:11:03.754Z,15.62
2017-11-24T06:11:44.300Z,15.64
2017-11-24T06:12:24.830Z,15.67
2017-11-24T06:13:05.344Z,15.67
2017-11-24T06:13:45.891Z,15.67
2017-11-24T06:14:26.506Z,15.6
2017-11-24T06:15:06.980Z,15.65
2017-11-24T06:15:47.568Z,15.62
2017-11-24T06:16:28.033Z,15.71
2017-11-24T06:17:08.605Z,15.72
2017-11-24T06:17:49.104Z,15.64
2017-11-24T06:18:29.670Z,15.68
2017-11-24T06:19:10.234Z,15.64
2017-11-24T06:19:50.733Z,15.71
2017-11-24T06:20:31.296Z,15.68
2017-11-24T06:21:11.830Z,15.68
2017-11-24T06:21:52.455Z,15.67
2017-11-24T06:22:33.077Z,15.74
2017-11-24T06:23:13.591Z,15.74
2017-11-24T06:23:54.135Z,15.71
2017-11-24T06:24:34.870Z,15.82
2017-11-24T06:25:15.459Z,15.68
2017-11-24T06:25:56.026Z,15.76
2017-11-24T06:26:36.527Z,15.74
2017-11-24T06:27:17.112Z,15.75
2017-11-24T06:27:57.596Z,15.76
2017-11-24T06:28:38.200Z,15.69
2017-11-24T06:29:18.691Z,15.72
2017-11-24T06:29:59.241Z,15.71
2017-11-24T06:30:39.769Z,15.72
2017-11-24T06:31:20.406Z,15.74
2017-11-24T06:32:00.961Z,15.75
2017-11-24T06:32:41.481Z,15.82
2017-11-24T06:33:22.085Z,15.74
2017-11-24T06:34:02.605Z,15.74
2017-11-24T06:34:43.276Z,15.71
2017-11-24T06:35:23.688Z,15.72
2017-11-24T06:36:04.209Z,15.71
2017-11-24T06:36:44.862Z,15.65
2017-11-24T06:37:25.473Z,15.76
2017-11-24T06:38:05.853Z,15.72
2017-11-24T06:38:46.455Z,15.74
2017-11-24T06:39:26.993Z,15.67
2017-11-24T06:40:07.495Z,15.76
2017-11-24T06:40:48.069Z,15.78
2017-11-24T06:41:28.610Z,15.78
2017-11-24T06:42:09.147Z,15.71
2017-11-24T06:42:49.762Z,15.78
2017-11-24T06:43:30.264Z,15.75
2017-11-24T06:44:10.806Z,15.8
2017-11-24T06:44:51.342Z,15.75
2017-11-24T06:45:31.879Z,15.72
2017-11-24T06:46:12.389Z,15.72
2017-11-24T06:46:53.054Z,15.72
2017-11-24T06:47:33.649Z,15.65
2017-11-24T06:48:14.187Z,15.68
2017-11-24T06:48:55.056Z,15.76
2017-11-24T06:49:35.533Z,15.62
2017-11-24T06:50:16.055Z,15.64
2017-11-24T06:50:59.380Z,15.69
2017-11-24T06:51:39.988Z,15.65
2017-11-24T06:52:20.751Z,15.62
2017-11-24T06:53:01.347Z,15.67
2017-11-24T06:53:41.897Z,15.64
2017-11-24T06:54:25.455Z,15.68
2017-11-24T06:55:06.038Z,15.6
2017-11-24T06:55:46.774Z,15.71
2017-11-24T06:56:27.276Z,15.69
2017-11-24T06:57:07.921Z,15.62
2017-11-24T06:57:48.464Z,15.69
2017-11-24T06:58:29.011Z,15.65
2017-11-24T06:59:09.582Z,15.68
2017-11-24T06:59:50.153Z,15.69
2017-11-24T07:00:30.802Z,15.64
2017-11-24T07:01:12.263Z,15.62
2017-11-24T07:01:52.825Z,15.67
2017-11-24T07:02:34.481Z,15.67
2017-11-24T07:03:15.042Z,15.68
2017-11-24T07:03:55.579Z,15.64
2017-11-24T07:04:36.134Z,15.65
2017-11-24T07:05:16.681Z,15.76
2017-11-24T07:05:57.219Z,15.72
2017-11-24T07:06:37.846Z,15.67
2017-11-24T07:07:19.844Z,15.65
2017-11-24T07:07:59.630Z,15.67
2017-11-24T07:08:40.143Z,15.75
2017-11-24T07:09:20.686Z,15.72
2017-11-24T07:10:01.257Z,15.71
2017-11-24T07:10:41.805Z,15.76
2017-11-24T07:11:22.474Z,15.74
2017-11-24T07:12:03.115Z,15.75
2017-11-24T07:12:43.661Z,15.72
2017-11-24T07:13:24.215Z,15.62
2017-11-24T07:14:04.792Z,15.76
2017-11-24T07:14:45.373Z,15.71
2017-11-24T07:15:25.948Z,15.74
2017-11-24T07:16:06.498Z,16.01
2017-11-24T07:16:47.098Z,15.94
2017-11-24T07:17:27.972Z,16.01
2017-11-24T07:18:08.490Z,16.23
2017-11-24T07:18:49.124Z,16.3
2017-11-24T07:19:29.676Z,16.53
2017-11-24T07:20:10.106Z,16.56
2017-11-24T07:20:50.657Z,16.27
2017-11-24T07:21:31.368Z,16.11
2017-11-24T07:22:11.952Z,16.14
2017-11-24T07:22:52.572Z,16.05
2017-11-24T07:23:33.762Z,16.04
2017-11-24T07:24:14.309Z,16.05
2017-11-24T07:24:54.813Z,16.05
2017-11-24T07:25:35.402Z,15.97
2017-11-24T07:26:16.221Z,16
2017-11-24T07:26:56.812Z,15.92
2017-11-24T07:27:37.481Z,16.15
2017-11-24T07:28:18.049Z,16.52
2017-11-24T07:28:58.834Z,16.78
2017-11-24T07:29:39.394Z,16.94
2017-11-24T07:30:20.378Z,17.04
2017-11-24T07:31:00.942Z,17.12
2017-11-24T07:31:41.581Z,16.79
2017-11-24T07:32:22.093Z,16.53
2017-11-24T07:33:02.848Z,16.57
2017-11-24T07:33:43.566Z,16.58
2017-11-24T07:34:24.029Z,16.45
2017-11-24T07:35:04.598Z,16.45
2017-11-24T07:35:45.969Z,16.48
2017-11-24T07:36:25.925Z,16.46
2017-11-24T07:37:06.457Z,16.33
2017-11-24T07:37:47.070Z,16.41
2017-11-24T07:38:27.753Z,16.41
2017-11-24T07:39:08.253Z,16.46
2017-11-24T07:39:49.319Z,16.38
2017-11-24T07:40:29.959Z,16.31
2017-11-24T07:41:10.485Z,16.41
2017-11-24T07:41:51.101Z,16.42
2017-11-24T07:42:31.690Z,16.46
2017-11-24T07:43:12.316Z,16.43
2017-11-24T07:43:52.951Z,16.46
2017-11-24T07:44:33.435Z,16.39
2017-11-24T07:45:14.592Z,16.46
2017-11-24T07:45:55.386Z,16.46
2017-11-24T07:46:36.102Z,16.48
2017-11-24T07:47:16.689Z,16.41
2017-11-24T07:47:57.624Z,16.41
2017-11-24T07:48:38.162Z,16.42
2017-11-24T07:49:18.813Z,16.43
2017-11-24T07:49:59.579Z,16.45
2017-11-24T07:50:40.038Z,16.41
2017-11-24T07:51:20.669Z,16.43
2017-11-24T07:52:01.144Z,16.48
2017-11-24T07:52:41.742Z,16.56
2017-11-24T07:53:22.479Z,16.5
2017-11-24T07:54:03.201Z,16.42
2017-11-24T07:54:43.743Z,16.5
2017-11-24T07:55:24.337Z,16.46
2017-11-24T07:56:05.142Z,16.52
2017-11-24T07:56:45.685Z,16.53
2017-11-24T07:57:26.482Z,16.68
2017-11-24T07:58:07.062Z,16.64
2017-11-24T07:58:47.853Z,16.66
2017-11-24T07:59:29.005Z,16.71
2017-11-24T08:00:10.887Z,16.76
2017-11-24T08:00:51.304Z,16.76
2017-11-24T08:01:31.860Z,16.79
2017-11-24T08:02:12.416Z,17.14
2017-11-24T08:02:52.941Z,16.97
2017-11-24T08:03:33.632Z,17.14
2017-11-24T08:04:14.129Z,17.21
2017-11-24T08:04:54.771Z,17.38
2017-11-24T08:05:35.337Z,17.41
2017-11-24T08:06:15.935Z,17.43
2017-11-24T08:06:56.563Z,17.64
2017-11-24T08:07:38.140Z,17.49
2017-11-24T08:08:18.957Z,17.25
2017-11-24T08:09:00.108Z,17.04
2017-11-24T08:09:40.902Z,17.08
2017-11-24T08:10:21.730Z,17.07
2017-11-24T08:11:02.320Z,16.98
2017-11-24T08:11:43.130Z,17.03
2017-11-24T08:12:24.976Z,17.44
2017-11-24T08:13:07.157Z,17.71
2017-11-24T08:13:48.211Z,17.59
2017-11-24T08:14:28.831Z,17.4
2017-11-24T08:15:09.271Z,17.63
2017-11-24T08:15:54.451Z,17.77
2017-11-24T08:16:35.072Z,17.74
2017-11-24T08:17:15.625Z,17.81
2017-11-24T08:17:57.794Z,17.79
2017-11-24T08:18:39.557Z,17.9
2017-11-24T08:19:20.922Z,17.59
2017-11-24T08:20:02.302Z,17.48
2017-11-24T08:20:42.837Z,17.48
2017-11-24T08:21:25.549Z,17.41
2017-11-24T08:22:06.485Z,17.44
2017-11-24T08:22:46.382Z,17.36
2017-11-24T08:23:28.242Z,17.41
2017-11-24T08:24:08.831Z,17.3
2017-11-24T08:24:49.427Z,17.44
2017-11-24T08:25:31.053Z,17.25
2017-11-24T08:26:12.850Z,17.23
2017-11-24T08:26:53.783Z,17.08
2017-11-24T08:27:34.486Z,17.11
2017-11-24T08:28:15.059Z,17.23
2017-11-24T08:28:55.911Z,17.51
2017-11-24T08:29:36.830Z,17.58
2017-11-24T08:30:18.094Z,17.81
2017-11-24T08:30:58.962Z,18.03
2017-11-24T08:31:39.500Z,17.92
2017-11-24T08:32:20.610Z,17.9
2017-11-24T08:33:02.119Z,17.78
2017-11-24T08:33:42.737Z,17.74
2017-11-24T08:34:24.679Z,17.72
2017-11-24T08:35:10.807Z,17.66
2017-11-24T08:35:52.357Z,17.58
2017-11-24T08:36:32.932Z,17.52
2017-11-24T08:37:13.437Z,17.58
2017-11-24T08:37:54.058Z,17.55
2017-11-24T08:38:34.676Z,17.63
2017-11-24T08:39:15.284Z,17.66
2017-11-24T08:39:56.262Z,17.74
2017-11-24T08:40:37.027Z,17.64
2017-11-24T08:41:17.988Z,17.66
2017-11-24T08:41:58.521Z,17.72
2017-11-24T08:42:39.165Z,17.74
2017-11-24T08:43:20.363Z,17.77
2017-11-24T08:44:01.706Z,17.63
2017-11-24T08:44:42.442Z,17.7
2017-11-24T08:45:23.415Z,17.74
2017-11-24T08:46:04.074Z,17.75
2017-11-24T08:46:44.539Z,17.74